• Join FlightAware (Why Join?)
  • Login
  • US Flag 
05:09AM EDT


 

Airport Tracker/Info


-or-


 

Live Flight TrackerFlight Track Log ✈ AWE1600 ✈ 16-Apr-2013 ✈ KPHL - KDTW

Flight Track Log - Related Links

Times and Time Zones

All times are in EDT time to prevent confusion due to time zone crossing. See the AWE1600 flight status page for this flight to view local times or setup timezone preferences in your user account.

Time Position Orientation Groundspeed Altitude Reporting Facility
EDT Latitude Longitude Course Direction KTS MPH feet Rate Location/Type
09:33AM 39.8833 -75.2167 270° West 161 185 800  Level Philadelphia TRACON
09:33AM 39.8811 -75.2033 102° East 160 184 1,600 1,920 Climbing FAA TRACON SMA TRACON (SMA)
09:34AM 39.8892 -75.1825 63° Northeast 169 194 2,100 1,500 Climbing FAA TRACON SMA TRACON (SMA)
09:34AM 39.8972 -75.1614 64° Northeast 214 246 2,600 1,620 Climbing FAA TRACON SMA TRACON (SMA)
09:34AM 39.9081 -75.1403 56° Northeast 237 273 3,200 2,100 Climbing FAA TRACON SMA TRACON (SMA)
09:35AM 39.9314 -75.1244 27° Northeast 260 299 4,000 2,400 Climbing FAA TRACON SMA TRACON (SMA)
09:35AM 39.9528 -75.1114 25° Northeast 272 313 4,800 3,000 Climbing FAA TRACON SMA TRACON (SMA)
09:35AM 39.9844 -75.1139 357° North 281 323 6,000 3,420 Climbing FAA TRACON SMA TRACON (SMA)
09:36AM 39.9000 -75.5898 270° West  Level FlightAware Approximate
09:36AM 40.0064 -75.1236 341° North 266 306 7,100  Level FAA TRACON SMA TRACON (SMA)
09:36AM 40.0217 -75.1447 313° West 261 300 8,300 3,120 Climbing FAA TRACON SMA TRACON (SMA)
09:36AM 40.0278 -75.1808 282° West 254 292 9,200 2,400 Climbing FAA TRACON SMA TRACON (SMA)
09:37AM 39.9097 -75.7085 258° West  Level FlightAware Approximate
09:37AM 40.0217 -75.2092 254° West 266 306 9,900  Level FAA TRACON SMA TRACON (SMA)
09:37AM 40.0161 -75.2347 254° West 285 328 10,000 120 Climbing FAA TRACON SMA TRACON (SMA)
09:37AM 40.0061 -75.2828 255° West 352 405 10,000  Level FAA TRACON SMA TRACON (SMA)
09:38AM 39.9000 -75.8303 270° West  Level FlightAware Approximate
09:38AM 39.9975 -75.3206 253° West 366 421 10,000  Level FAA TRACON SMA TRACON (SMA)
09:38AM 39.9894 -75.3539 253° West 366 421 10,000  Level FAA TRACON SMA TRACON (SMA)
09:38AM 39.9778 -75.4075 254° West 372 428 10,000  Level FAA TRACON SMA TRACON (SMA)
09:39AM 39.9683 -75.4486 253° West 373 429 10,000  Level FAA TRACON SMA TRACON (SMA)
09:39AM 39.9572 -75.4981 254° West 372 428 10,000  Level FAA TRACON SMA TRACON (SMA)
09:39AM 39.9492 -75.5367 255° West 372 428 10,000  Level FAA TRACON SMA TRACON (SMA)
09:40AM 39.9392 -75.5775 252° West 374 430 10,000  Level FAA TRACON SMA TRACON (SMA)
09:40AM 39.9281 -75.6267 254° West 374 430 10,000 420 Level FAA TRACON SMA TRACON (SMA)
09:40AM 39.9194 -75.6669 254° West 371 427 10,300 1,500 Climbing FAA TRACON SMA TRACON (SMA)
09:41AM 39.9175 -75.7083 267° West 374 430 11,000 2,820 Climbing FAA TRACON SMA TRACON (SMA)
09:41AM 39.9167 -75.7586 269° West 374 430 12,200 3,000 Climbing FAA TRACON SMA TRACON (SMA)
09:41AM 39.9161 -75.8017 269° West 375 432 13,000 2,220 Climbing FAA TRACON SMA TRACON (SMA)
09:42AM 39.9147 -75.8428 267° West 379 436 13,700 2,520 Climbing FAA TRACON SMA TRACON (SMA)
09:42AM 39.9136 -75.8983 269° West 386 444 14,700 2,700 Climbing FAA TRACON SMA TRACON (SMA)
09:42AM 39.9128 -75.9417 269° West 389 448 15,500 2,220 Climbing FAA TRACON SMA TRACON (SMA)
09:43AM 39.9117 -75.9856 268° West 392 451 16,200 1,920 Climbing FAA TRACON SMA TRACON (SMA)
09:43AM 39.9103 -76.0414 268° West 398 458 16,800 2,100 Climbing FAA TRACON SMA TRACON (SMA)
09:43AM 39.9106 -76.0856 270° West 403 464 17,600 1,500 Climbing FAA TRACON SMA TRACON (SMA)
09:44AM 39.9083 -76.1325 266° West 409 471 17,800 600 Climbing FAA TRACON SMA TRACON (SMA)
09:44AM 39.9081 -76.1439 268° West 411 473 18,000 300 Climbing FAA TRACON SMA TRACON (SMA)
09:44AM 39.9081 -76.1439 169° South 411 473 18,000 2,100 Level FAA TRACON SMA TRACON (SMA)
09:46AM 39.9172 -76.4739 272° West 419 482 22,300 2,160 Climbing New York Center
09:47AM 39.9242 -76.6286 273° West 425 489 23,900 1,920 Climbing New York Center
09:48AM 39.9428 -76.7981 278° West 425 489 26,200 2,040 Climbing New York Center
09:49AM 39.9711 -76.9389 285° West 419 482 28,000 1,380 Climbing New York Center
09:50AM 39.9986 -77.0875 284° West 414 476 29,000 960 Climbing New York Center
09:51AM 40.0275 -77.2447 284° West 432 497 30,000 1,320 Climbing New York Center
09:54AM 40.0972 -77.6164 284° West 432 497 33,800 1,140 Climbing Cleveland Center
09:55AM 40.1197 -77.7650 281° West 427 491 34,000 60 Climbing Cleveland Center
09:56AM 40.1361 -77.9164 278° West 427 491 34,000  Level Cleveland Center
09:57AM 40.1372 -78.0656 271° West 427 491 34,000  Level Cleveland Center
09:58AM 40.1386 -78.2175 271° West 422 486 34,000  Level Cleveland Center
09:59AM 40.1375 -78.3697 270° West 422 486 34,000  Level Cleveland Center
10:00AM 40.1569 -78.5158 280° West 422 486 34,000  Level Cleveland Center
10:01AM 40.1928 -78.6614 288° West 422 486 34,000  Level Cleveland Center
10:02AM 40.2283 -78.8047 288° West 422 486 34,000  Level Cleveland Center
10:03AM 40.2619 -78.9481 287° West 417 480 34,000 -240 Level Cleveland Center
10:04AM 40.2950 -79.0886 287° West 417 480 33,600 -540 Descending Cleveland Center
10:05AM 40.3281 -79.2294 287° West 412 474 33,000 -300 Descending Cleveland Center
10:06AM 40.3650 -79.3706 289° West 412 474 33,000 -360 Level Cleveland Center
10:07AM 40.3978 -79.5117 287° West 412 474 32,300 -900 Descending Cleveland Center
10:08AM 40.4303 -79.6558 287° West 412 474 31,300 -1,020 Descending Cleveland Center
10:09AM 40.4628 -79.8000 287° West 412 474 30,300 -660 Descending Cleveland Center
10:10AM 40.4969 -79.9469 287° West 418 481 30,000 -180 Descending Cleveland Center
10:11AM 40.5267 -80.0886 285° West 418 481 30,000  Level Cleveland Center
10:12AM 40.5586 -80.2333 286° West 413 475 30,000  Level Cleveland Center
10:13AM 40.5922 -80.3644 289° West 413 475 30,000  Level Cleveland Center
10:14AM 40.6217 -80.5119 285° West 413 475 30,000  Level Cleveland Center
10:15AM 40.6528 -80.6569 286° West 413 475 30,000  Level Cleveland Center
10:16AM 40.7028 -80.7939 296° West 413 475 30,000  Level Cleveland Center
10:17AM 40.7650 -80.9231 302° West 413 475 30,000 -420 Level Cleveland Center
10:18AM 40.8333 -81.0717 301° West 418 481 29,200 -900 Descending Cleveland Center
10:19AM 40.8972 -81.2011 303° West 431 496 28,200 -1,020 Descending Cleveland Center
10:20AM 40.9589 -81.3308 302° West 431 496 27,200 -1,020 Descending Cleveland Center
10:21AM 41.0206 -81.4583 303° West 431 496 26,200 -1,020 Descending Cleveland Center
10:22AM 41.0800 -81.5803 303° West 416 479 25,200 -960 Descending Cleveland Center
10:23AM 41.1353 -81.6914 303° West 402 463 24,300 -600 Descending Cleveland Center
10:24AM 41.1944 -81.8111 303° West 397 457 24,000 -180 Descending Cleveland Center
10:25AM 41.2517 -81.9336 302° West 392 451 24,000 -120 Level Cleveland Center
10:26AM 41.3083 -82.0564 302° West 392 451 23,800 -660 Descending Cleveland Center
10:27AM 41.3733 -82.1908 303° West 397 457 22,700 -1,440 Descending Cleveland Center
10:28AM 41.4383 -82.2978 309° West 390 449 21,000 -1,920 Descending Cleveland Center
10:29AM 41.5014 -82.4019 309° West 367 422 18,900 -2,160 Descending Cleveland Center
10:29AM 41.5358 -82.4611 308° West 360 414 17,700 -1,920 Descending Cleveland Center
10:30AM 41.5625 -82.5036 310° West 360 414 17,000 -1,680 Descending Cleveland Center
10:30AM 41.5786 -82.5289 310° West 347 399 16,500 -1,920 Descending Cleveland Center
10:31AM 41.6211 -82.6053 307° West 355 409 15,100 -1,920 Descending Cleveland Center
10:31AM 41.6453 -82.6450 309° West 334 384 14,400 -1,920 Descending Cleveland Center
10:32AM 41.6736 -82.6958 307° West 342 394 13,200 -1,620 Descending Cleveland Center
10:32AM 41.6961 -82.7272 314° West 318 366 12,900 -1,200 Descending Cleveland Center
10:33AM 41.7322 -82.7897 308° West 329 379 12,000 -840 Descending Cleveland Center
10:33AM 41.7608 -82.8239 318° Northwest 328 377 12,000  Level Cleveland Center
10:34AM 41.7956 -82.8642 319° Northwest 315 362 12,000  Level Cleveland Center
10:34AM 41.8258 -82.9044 315° West 267 307 12,000  Level Cleveland Center
10:35AM 41.8506 -82.9303 322° Northwest 287 330 12,000  Level Cleveland Center
10:35AM 41.8831 -82.9678 319° Northwest 264 304 12,000  Level Cleveland Center
10:36AM 41.9014 -82.9936 314° West 266 306 12,000  Level Cleveland Center
10:36AM 41.9278 -83.0225 321° Northwest 214 246 12,000  Level Cleveland Center
10:37AM 41.9458 -83.0483 313° West 237 273 12,000  Level Cleveland Center
10:37AM 41.9825 -83.0889 321° Northwest 213 245 12,000  Level Cleveland Center
10:38AM 42.0211 -83.1350 318° Northwest 214 246 12,000  Level Cleveland Center
10:39AM 42.0353 -83.1525 317° Northwest 213 245 12,000  Level Cleveland Center
10:39AM 42.0636 -83.1900 316° Northwest 216 249 12,000 -180 Level Cleveland Center
10:40AM 42.1253 -83.2344 332° Northwest 245 282 11,700 -1,260 Descending Cleveland Center
10:41AM 42.1967 -83.2094 15° North 270 311 9,400 -1,980 Descending Cleveland Center
10:42AM 42.2603 -83.1586 31° Northeast 270 311 7,700 -1,560 Descending Cleveland Center
10:43AM 42.3328 -83.0969 32° Northeast 267 307 6,100 -840 Descending Cleveland Center
10:44AM 42.3964 -83.0433 32° Northeast 263 303 6,000 -60 Descending Cleveland Center
10:45AM 42.4517 -82.9947 33° Northeast 262 302 6,000  Level Cleveland Center
10:46AM 42.4986 -83.0333 329° Northwest 198 228 6,000  Level Cleveland Center
10:47AM 42.4975 -83.0953 269° West 171 197 6,000  Level Cleveland Center